createdAt,value
2023-01-01T00:02:37.696Z,147.68
2023-01-01T00:05:44.498Z,142.90
2023-01-01T00:09:15.081Z,137.31
2023-01-01T00:12:21.346Z,142.54
2023-01-01T00:15:29.401Z,142.88
2023-01-01T00:18:35.706Z,142.78
2023-01-01T00:21:43.049Z,143.13
2023-01-01T00:24:51.798Z,165.19
2023-01-01T00:27:58.779Z,184.82
2023-01-01T00:31:10.973Z,169.98
2023-01-01T00:34:18.151Z,161.43
2023-01-01T00:37:24.429Z,151.39
2023-01-01T00:40:34.188Z,145.04
2023-01-01T00:43:40.458Z,148.83
2023-01-01T00:46:47.500Z,160.34
2023-01-01T00:49:53.828Z,174.92
2023-01-01T00:53:00.964Z,163.74
2023-01-01T00:56:10.525Z,154.65
2023-01-01T00:59:17.553Z,158.64
2023-01-01T01:02:23.805Z,160.40
2023-01-01T01:05:30.833Z,163.92
2023-01-01T01:08:40.644Z,170.62
2023-01-01T01:11:50.368Z,175.20
2023-01-01T01:14:56.520Z,167.08
2023-01-01T01:18:03.479Z,170.57
2023-01-01T01:21:10.070Z,170.70
2023-01-01T01:24:17.062Z,166.72
2023-01-01T01:27:25.780Z,163.32
2023-01-01T01:30:33.481Z,158.25
2023-01-01T01:33:39.941Z,158.60
2023-01-01T01:36:46.839Z,160.94
2023-01-01T01:39:54.128Z,161.68
2023-01-01T01:43:04.080Z,153.15
2023-01-01T01:46:17.537Z,156.32
2023-01-01T01:49:33.667Z,156.72
2023-01-01T01:52:50.843Z,161.83
2023-01-01T01:56:04.544Z,157.35
2023-01-01T01:59:13.516Z,155.40
2023-01-01T02:02:35.387Z,160.90
2023-01-01T02:05:45.407Z,166.04
2023-01-01T02:08:54.758Z,169.89
2023-01-01T02:12:02.966Z,178.23
2023-01-01T02:15:13.992Z,174.79
2023-01-01T02:18:28.256Z,162.94
2023-01-01T02:21:53.146Z,146.68
2023-01-01T02:25:23.866Z,143.49
2023-01-01T02:28:59.021Z,141.77
2023-01-01T02:32:12.492Z,132.74
2023-01-01T02:35:46.132Z,135.52
2023-01-01T02:38:59.923Z,131.45
2023-01-01T02:42:10.981Z,124.37
2023-01-01T02:45:19.724Z,127.82
2023-01-01T02:48:44.539Z,128.92
2023-01-01T02:52:08.325Z,115.97
2023-01-01T02:55:37.385Z,110.96
2023-01-01T02:59:19.858Z,96.29
2023-01-01T03:02:50.713Z,87.96
2023-01-01T03:06:27.286Z,85.28
2023-01-01T03:09:57.233Z,89.81
2023-01-01T03:13:16.673Z,108.05
2023-01-01T03:16:38.443Z,102.03
2023-01-01T03:19:49.410Z,88.30
2023-01-01T03:23:05.258Z,82.59
2023-01-01T03:26:18.255Z,78.25
2023-01-01T03:29:27.485Z,83.27
2023-01-01T03:32:56.823Z,81.12
2023-01-01T03:36:16.041Z,82.05
2023-01-01T03:39:29.909Z,84.37
2023-01-01T03:42:44.652Z,90.11
2023-01-01T03:45:58.036Z,84.72
2023-01-01T03:49:09.822Z,88.07
2023-01-01T03:52:46.061Z,84.74
2023-01-01T03:56:10.422Z,78.50
2023-01-01T03:59:26.915Z,77.56
2023-01-01T04:02:43.052Z,78.36
2023-01-01T04:05:49.809Z,70.87
2023-01-01T04:09:06.949Z,69.98
2023-01-01T04:12:14.520Z,72.92
2023-01-01T04:15:25.167Z,75.78
2023-01-01T04:18:32.040Z,80.49
2023-01-01T04:21:38.933Z,82.48
2023-01-01T04:24:47.581Z,91.01
2023-01-01T04:27:54.507Z,103.17
2023-01-01T04:31:04.221Z,101.18
2023-01-01T04:34:11.240Z,104.59
2023-01-01T04:37:17.424Z,107.23
2023-01-01T04:40:26.927Z,124.57
2023-01-01T04:43:34.986Z,145.66
2023-01-01T04:46:42.833Z,116.32
2023-01-01T04:49:48.903Z,92.76
2023-01-01T04:52:56.694Z,88.80
2023-01-01T04:56:12.057Z,91.54
2023-01-01T04:59:19.004Z,93.17
2023-01-01T05:02:25.107Z,91.05
2023-01-01T05:05:32.079Z,93.71
2023-01-01T05:08:42.796Z,92.37
2023-01-01T05:11:52.314Z,94.33
2023-01-01T05:14:58.338Z,101.60
2023-01-01T05:18:05.297Z,113.62
2023-01-01T05:21:15.150Z,122.06
2023-01-01T05:24:22.078Z,128.58
2023-01-01T05:27:30.830Z,128.26
2023-01-01T05:30:37.980Z,124.86
2023-01-01T05:33:45.249Z,123.03
2023-01-01T05:36:52.210Z,117.66
2023-01-01T05:39:58.500Z,103.92
2023-01-01T05:43:07.985Z,94.81
2023-01-01T05:46:17.954Z,82.75
2023-01-01T05:49:25.656Z,76.74
2023-01-01T05:52:31.752Z,76.31
2023-01-01T05:55:38.694Z,73.57
2023-01-01T05:58:48.872Z,76.75
2023-01-01T06:01:55.844Z,82.00
2023-01-01T06:05:01.925Z,89.44
2023-01-01T06:08:09.845Z,95.42
2023-01-01T06:11:15.972Z,82.68
2023-01-01T06:14:25.513Z,70.50
2023-01-01T06:17:31.558Z,66.80
2023-01-01T06:20:38.489Z,64.65
2023-01-01T06:23:45.481Z,60.32
2023-01-01T06:26:52.513Z,65.58
2023-01-01T06:30:02.014Z,68.95
2023-01-01T06:33:09.394Z,76.00
2023-01-01T06:36:19.739Z,74.62
2023-01-01T06:39:26.591Z,74.69
2023-01-01T06:42:34.171Z,77.91
2023-01-01T06:45:43.756Z,72.08
2023-01-01T06:48:52.518Z,72.83
2023-01-01T06:51:59.710Z,71.60
2023-01-01T06:55:05.877Z,69.71
2023-01-01T06:58:12.972Z,70.51
2023-01-01T07:01:25.714Z,68.12
2023-01-01T07:04:32.816Z,71.99
2023-01-01T07:07:38.904Z,73.54
2023-01-01T07:10:45.869Z,76.28
2023-01-01T07:13:52.028Z,80.95
2023-01-01T07:17:01.583Z,90.29
2023-01-01T07:20:09.105Z,93.85
2023-01-01T07:23:16.065Z,96.10
2023-01-01T07:26:22.126Z,88.41
2023-01-01T07:29:29.238Z,78.75
2023-01-01T07:32:38.044Z,76.17
2023-01-01T07:35:45.941Z,70.75
2023-01-01T07:38:52.038Z,65.47
2023-01-01T07:41:59.027Z,67.52
2023-01-01T07:45:05.212Z,62.29
2023-01-01T07:48:19.096Z,62.74
2023-01-01T07:51:26.404Z,67.30
2023-01-01T07:54:33.314Z,62.39
2023-01-01T07:57:39.411Z,82.56
2023-01-01T08:00:50.654Z,108.19
2023-01-01T08:03:59.436Z,100.50
2023-01-01T08:07:06.368Z,100.07
2023-01-01T08:10:13.857Z,88.46
2023-01-01T08:13:20.821Z,84.14
2023-01-01T08:16:27.128Z,84.15
2023-01-01T08:19:36.765Z,89.12
2023-01-01T08:22:42.810Z,106.83
2023-01-01T08:25:50.511Z,100.22
2023-01-01T08:28:57.553Z,82.83
2023-01-01T08:32:04.530Z,79.30
2023-01-01T08:35:14.510Z,81.92
2023-01-01T08:38:21.520Z,84.28
2023-01-01T08:41:27.632Z,83.86
2023-01-01T08:44:34.524Z,90.47
2023-01-01T08:47:40.744Z,89.31
2023-01-01T08:50:56.623Z,97.84
2023-01-01T08:54:02.971Z,88.49
2023-01-01T08:57:10.219Z,80.71
2023-01-01T09:00:18.399Z,83.67
2023-01-01T09:03:26.581Z,76.53
2023-01-01T09:06:35.443Z,78.17
2023-01-01T09:09:42.444Z,87.46
2023-01-01T09:12:48.715Z,82.49
2023-01-01T09:15:56.311Z,82.01
2023-01-01T09:19:02.666Z,88.90
2023-01-01T09:22:16.077Z,91.96
2023-01-01T09:25:22.589Z,132.38
2023-01-01T09:28:29.848Z,123.52
2023-01-01T09:31:36.126Z,102.08
2023-01-01T09:34:47.323Z,106.91
2023-01-01T09:38:00.140Z,87.29
2023-01-01T09:41:25.018Z,93.83
2023-01-01T09:45:05.609Z,109.65
2023-01-01T09:48:20.680Z,107.86
2023-01-01T09:51:45.257Z,115.13
2023-01-01T09:55:07.388Z,135.90
2023-01-01T09:58:16.419Z,142.92
2023-01-01T10:01:48.072Z,120.64
2023-01-01T10:05:13.345Z,111.37
2023-01-01T10:08:42.764Z,99.12
2023-01-01T10:12:08.984Z,84.82
2023-01-01T10:15:25.270Z,96.06
2023-01-01T10:18:38.631Z,99.70
2023-01-01T10:21:49.749Z,77.90
2023-01-01T10:25:04.057Z,93.31
2023-01-01T10:28:26.151Z,99.44
2023-01-01T10:31:37.854Z,108.34
2023-01-01T10:34:45.625Z,101.43
2023-01-01T10:37:53.098Z,100.18
2023-01-01T10:41:18.981Z,90.50
2023-01-01T10:44:34.724Z,106.56
2023-01-01T10:47:41.854Z,105.65
2023-01-01T10:50:53.815Z,98.02
2023-01-01T10:54:01.153Z,94.83
2023-01-01T10:57:21.665Z,84.35
2023-01-01T11:00:32.288Z,77.10
2023-01-01T11:03:39.118Z,82.48
2023-01-01T11:06:50.377Z,95.61
2023-01-01T11:10:05.366Z,89.99
2023-01-01T11:13:25.800Z,82.07
2023-01-01T11:16:42.024Z,73.85
2023-01-01T11:19:59.760Z,71.94
2023-01-01T11:23:31.713Z,70.80
2023-01-01T11:26:40.868Z,73.28
2023-01-01T11:29:48.513Z,96.43
2023-01-01T11:33:04.767Z,80.66
2023-01-01T11:36:12.406Z,74.11
2023-01-01T11:39:29.016Z,72.89
2023-01-01T11:42:40.652Z,73.81
2023-01-01T11:45:48.383Z,94.69
2023-01-01T11:48:58.343Z,86.11
2023-01-01T11:52:38.254Z,73.71
2023-01-01T11:55:51.098Z,75.46
2023-01-01T11:59:06.035Z,61.83
2023-01-01T12:02:21.736Z,67.82
2023-01-01T12:05:51.984Z,65.94
2023-01-01T12:09:18.307Z,53.11
2023-01-01T12:12:37.605Z,59.48
2023-01-01T12:15:56.156Z,60.86
2023-01-01T12:19:16.454Z,68.33
2023-01-01T12:22:25.263Z,72.40
2023-01-01T12:25:43.943Z,69.48
2023-01-01T12:29:36.903Z,68.13
2023-01-01T12:33:28.262Z,63.38
2023-01-01T12:36:51.926Z,67.37
2023-01-01T12:40:38.013Z,71.03
2023-01-01T12:44:02.258Z,66.04
2023-01-01T12:47:37.245Z,68.93
2023-01-01T12:51:05.192Z,78.22
2023-01-01T12:54:51.184Z,79.93
2023-01-01T12:58:14.470Z,79.18
2023-01-01T13:01:32.806Z,75.64
2023-01-01T13:04:43.279Z,60.91
2023-01-01T13:08:02.968Z,59.99
2023-01-01T13:11:13.229Z,54.36
2023-01-01T13:14:23.217Z,56.29
2023-01-01T13:17:33.438Z,56.56
2023-01-01T13:20:45.643Z,57.42
2023-01-01T13:23:56.265Z,51.86
2023-01-01T13:27:07.366Z,49.95
2023-01-01T13:30:55.127Z,57.94
2023-01-01T13:35:02.985Z,56.02
2023-01-01T13:38:53.696Z,72.46
2023-01-01T13:42:00.891Z,83.39
2023-01-01T13:45:36.523Z,88.55
2023-01-01T13:49:29.297Z,80.63
2023-01-01T13:53:11.417Z,62.76
2023-01-01T13:56:40.964Z,59.60
2023-01-01T14:00:25.822Z,57.19
2023-01-01T14:03:45.807Z,54.86
2023-01-01T14:07:18.627Z,56.67
2023-01-01T14:10:33.996Z,55.81
2023-01-01T14:13:44.618Z,59.90
2023-01-01T14:16:51.986Z,63.46
2023-01-01T14:20:01.014Z,68.00
2023-01-01T14:23:14.833Z,63.08
2023-01-01T14:26:25.059Z,66.52
2023-01-01T14:29:35.991Z,72.03
2023-01-01T14:32:42.303Z,85.32
2023-01-01T14:36:00.435Z,80.10
2023-01-01T14:39:07.293Z,76.55
2023-01-01T14:42:20.838Z,88.94
2023-01-01T14:45:28.541Z,95.06
2023-01-01T14:48:37.710Z,105.29
2023-01-01T14:51:56.745Z,110.32
2023-01-01T14:55:06.964Z,132.11
2023-01-01T14:58:21.508Z,125.95
2023-01-01T15:01:30.474Z,116.23
2023-01-01T15:04:37.267Z,119.53
2023-01-01T15:07:46.880Z,118.34
2023-01-01T15:10:54.105Z,105.98
2023-01-01T15:14:05.011Z,113.56
2023-01-01T15:17:14.915Z,121.93
2023-01-01T15:20:26.274Z,108.49
2023-01-01T15:23:36.652Z,117.11
2023-01-01T15:26:52.158Z,147.17
2023-01-01T15:30:00.745Z,117.39
2023-01-01T15:33:19.652Z,104.50
2023-01-01T15:36:28.485Z,96.77
2023-01-01T15:39:50.729Z,99.76
2023-01-01T15:43:21.520Z,97.78
2023-01-01T15:46:32.792Z,108.34
2023-01-01T15:49:39.515Z,103.94
2023-01-01T15:52:55.420Z,101.26
2023-01-01T15:56:13.220Z,104.66
2023-01-01T15:59:33.575Z,106.96
2023-01-01T16:02:40.364Z,122.30
2023-01-01T16:05:55.529Z,120.20
2023-01-01T16:09:04.608Z,133.60
2023-01-01T16:12:14.758Z,129.25
2023-01-01T16:15:21.545Z,144.97
2023-01-01T16:18:34.722Z,174.78
2023-01-01T16:21:41.166Z,189.23
2023-01-01T16:24:48.851Z,212.54
2023-01-01T16:27:57.797Z,210.92
2023-01-01T16:31:05.467Z,210.51
2023-01-01T16:34:16.140Z,200.58
2023-01-01T16:37:23.626Z,206.33
2023-01-01T16:40:34.063Z,202.74
2023-01-01T16:43:48.603Z,193.07
2023-01-01T16:46:55.225Z,201.88
2023-01-01T16:50:02.641Z,239.90
2023-01-01T16:53:09.264Z,213.04
2023-01-01T16:56:18.167Z,209.80
2023-01-01T16:59:27.831Z,218.86
2023-01-01T17:02:35.293Z,233.80
2023-01-01T17:05:44.417Z,198.51
2023-01-01T17:08:52.317Z,185.71
2023-01-01T17:11:59.021Z,221.84
2023-01-01T17:15:10.927Z,255.38
2023-01-01T17:18:20.818Z,212.87
2023-01-01T17:21:35.635Z,236.66
2023-01-01T17:24:42.298Z,233.73
2023-01-01T17:27:51.144Z,233.30
2023-01-01T17:31:07.348Z,240.22
2023-01-01T17:34:15.503Z,232.90
2023-01-01T17:37:23.106Z,246.41
2023-01-01T17:40:36.587Z,243.87
2023-01-01T17:43:46.585Z,251.23
2023-01-01T17:46:56.728Z,218.79
2023-01-01T17:50:03.523Z,199.36
2023-01-01T17:53:14.213Z,199.08
2023-01-01T17:56:23.772Z,192.68
2023-01-01T17:59:32.653Z,204.63
2023-01-01T18:02:42.013Z,237.42
2023-01-01T18:05:49.539Z,238.85
2023-01-01T18:09:00.194Z,262.86
2023-01-01T18:12:09.130Z,263.13
2023-01-01T18:15:16.832Z,274.50
2023-01-01T18:18:26.602Z,271.45
2023-01-01T18:21:33.529Z,284.99
2023-01-01T18:24:40.837Z,266.88
2023-01-01T18:27:51.222Z,279.53
2023-01-01T18:31:08.901Z,239.76
2023-01-01T18:34:18.503Z,221.83
2023-01-01T18:37:26.064Z,216.99
2023-01-01T18:40:38.051Z,200.35
2023-01-01T18:43:45.446Z,194.53
2023-01-01T18:47:01.304Z,195.67
2023-01-01T18:50:24.109Z,192.80
2023-01-01T18:53:32.384Z,191.59
2023-01-01T18:56:39.443Z,194.26
2023-01-01T18:59:45.872Z,212.85
2023-01-01T19:03:00.537Z,221.59
2023-01-01T19:06:28.057Z,210.49
2023-01-01T19:09:35.202Z,208.10
2023-01-01T19:12:41.567Z,193.21
2023-01-01T19:15:52.021Z,175.95
2023-01-01T19:19:14.069Z,180.40
2023-01-01T19:22:36.766Z,181.63
2023-01-01T19:25:44.276Z,191.19
2023-01-01T19:28:56.599Z,209.43
2023-01-01T19:32:03.057Z,184.73
2023-01-01T19:35:16.331Z,170.48
2023-01-01T19:38:26.269Z,167.91
2023-01-01T19:41:33.666Z,163.22
2023-01-01T19:44:42.321Z,167.29
2023-01-01T19:47:49.590Z,162.72
2023-01-01T19:50:56.156Z,163.03
2023-01-01T19:54:07.361Z,166.11
2023-01-01T19:57:14.334Z,157.41
2023-01-01T20:00:23.055Z,153.57
2023-01-01T20:06:57.164Z,148.62
2023-01-01T20:10:06.819Z,157.86
2023-01-01T20:13:14.491Z,158.14
2023-01-01T20:16:21.540Z,153.46
2023-01-01T20:19:29.244Z,147.91
2023-01-01T20:22:36.917Z,146.82
2023-01-01T20:25:47.906Z,144.01
2023-01-01T20:29:07.029Z,134.20
2023-01-01T20:32:16.076Z,157.74
2023-01-01T20:35:43.105Z,155.95
2023-01-01T20:38:47.791Z,142.62
2023-01-01T20:41:57.103Z,134.47
2023-01-01T20:45:04.207Z,134.88
2023-01-01T20:48:17.825Z,139.49
2023-01-01T20:51:27.250Z,140.91
2023-01-01T20:54:33.896Z,141.65
2023-01-01T20:57:43.923Z,141.55
2023-01-01T21:00:50.746Z,135.49
2023-01-01T21:03:57.989Z,132.01
2023-01-01T21:07:04.615Z,135.75
2023-01-01T21:10:12.639Z,132.55
2023-01-01T21:13:23.392Z,129.58
2023-01-01T21:16:36.203Z,119.86
2023-01-01T21:19:42.433Z,125.68
2023-01-01T21:22:50.080Z,126.46
2023-01-01T21:25:56.793Z,133.92
2023-01-01T21:29:17.028Z,134.31
2023-01-01T21:32:27.362Z,157.61
2023-01-01T21:35:38.364Z,155.63
2023-01-01T21:38:44.951Z,155.30
2023-01-01T21:41:52.068Z,161.13
2023-01-01T21:45:02.995Z,158.36
2023-01-01T21:48:21.612Z,152.24
2023-01-01T21:51:30.661Z,143.82
2023-01-01T21:54:41.441Z,146.24
2023-01-01T21:57:48.208Z,144.50
2023-01-01T22:00:57.929Z,151.67
2023-01-01T22:04:19.772Z,154.98
2023-01-01T22:07:57.424Z,159.53
2023-01-01T22:11:01.082Z,154.07
2023-01-01T22:14:17.494Z,153.65
2023-01-01T22:17:36.831Z,163.42
2023-01-01T22:20:48.750Z,172.49
2023-01-01T22:24:03.108Z,160.07
2023-01-01T22:27:31.130Z,168.37
2023-01-01T22:30:44.874Z,167.50
2023-01-01T22:34:00.492Z,168.17
2023-01-01T22:37:12.187Z,186.31
2023-01-01T22:40:31.017Z,154.24
2023-01-01T22:43:41.830Z,162.51
2023-01-01T22:46:49.013Z,157.66
2023-01-01T22:49:57.812Z,163.95
2023-01-01T22:53:04.816Z,167.20
2023-01-01T22:56:11.693Z,167.39
2023-01-01T22:59:18.706Z,156.70
2023-01-01T23:02:24.900Z,164.63
2023-01-01T23:05:34.809Z,148.46
2023-01-01T23:08:41.194Z,150.59
2023-01-01T23:11:48.677Z,140.51
2023-01-01T23:15:07.164Z,134.02
2023-01-01T23:18:15.491Z,135.68
2023-01-01T23:21:27.589Z,129.53
2023-01-01T23:24:36.631Z,123.25
2023-01-01T23:27:44.172Z,127.44
2023-01-01T23:30:52.599Z,125.05
2023-01-01T23:34:02.281Z,126.16
2023-01-01T23:37:12.978Z,134.18
2023-01-01T23:40:19.318Z,122.32
2023-01-01T23:43:26.279Z,116.15
2023-01-01T23:46:34.869Z,127.07
2023-01-01T23:49:45.296Z,122.43
2023-01-01T23:52:54.225Z,117.62
2023-01-01T23:56:01.441Z,117.83
2023-01-01T23:59:07.604Z,106.93
